sensor_id;sensor_type;location;lat;lon;timestamp;temperature;humidity
61807;DHT22;47726;52.766;6.606;2022-09-01T00:01:34;16.50;97.10
61807;DHT22;47726;52.766;6.606;2022-09-01T00:04:02;16.40;97.10
61807;DHT22;47726;52.766;6.606;2022-09-01T00:06:30;16.40;97.20
61807;DHT22;47726;52.766;6.606;2022-09-01T00:09:00;16.40;97.20
61807;DHT22;47726;52.766;6.606;2022-09-01T00:11:27;16.30;97.10
61807;DHT22;47726;52.766;6.606;2022-09-01T00:13:54;16.30;97.00
61807;DHT22;47726;52.766;6.606;2022-09-01T00:16:19;16.30;97.00
61807;DHT22;47726;52.766;6.606;2022-09-01T00:18:48;16.30;97.10
61807;DHT22;47726;52.766;6.606;2022-09-01T00:21:15;16.30;97.10
61807;DHT22;47726;52.766;6.606;2022-09-01T00:23:41;16.20;97.20
61807;DHT22;47726;52.766;6.606;2022-09-01T00:26:07;16.20;97.30
61807;DHT22;47726;52.766;6.606;2022-09-01T00:28:33;16.20;97.20
61807;DHT22;47726;52.766;6.606;2022-09-01T00:30:59;16.20;97.30
61807;DHT22;47726;52.766;6.606;2022-09-01T00:33:25;16.10;97.20
61807;DHT22;47726;52.766;6.606;2022-09-01T00:35:51;16.10;97.10
61807;DHT22;47726;52.766;6.606;2022-09-01T00:38:16;16.10;97.00
61807;DHT22;47726;52.766;6.606;2022-09-01T00:40:42;16.10;97.20
61807;DHT22;47726;52.766;6.606;2022-09-01T00:43:21;16.00;97.20
61807;DHT22;47726;52.766;6.606;2022-09-01T00:45:48;16.00;97.20
61807;DHT22;47726;52.766;6.606;2022-09-01T00:48:17;16.00;97.20
61807;DHT22;47726;52.766;6.606;2022-09-01T00:50:45;16.00;97.10
61807;DHT22;47726;52.766;6.606;2022-09-01T00:53:11;16.00;97.00
61807;DHT22;47726;52.766;6.606;2022-09-01T00:55:38;16.00;96.90
61807;DHT22;47726;52.766;6.606;2022-09-01T00:58:05;15.90;97.00
61807;DHT22;47726;52.766;6.606;2022-09-01T01:00:34;15.90;97.00
61807;DHT22;47726;52.766;6.606;2022-09-01T01:03:08;15.90;97.10
61807;DHT22;47726;52.766;6.606;2022-09-01T01:05:39;15.90;97.00
61807;DHT22;47726;52.766;6.606;2022-09-01T01:08:07;15.80;97.00
61807;DHT22;47726;52.766;6.606;2022-09-01T01:10:37;15.80;96.90
61807;DHT22;47726;52.766;6.606;2022-09-01T01:13:14;15.80;96.90
61807;DHT22;47726;52.766;6.606;2022-09-01T01:15:40;15.80;96.90
61807;DHT22;47726;52.766;6.606;2022-09-01T01:18:13;15.80;97.10
61807;DHT22;47726;52.766;6.606;2022-09-01T01:20:39;15.70;97.00
61807;DHT22;47726;52.766;6.606;2022-09-01T01:25:59;15.70;96.90
61807;DHT22;47726;52.766;6.606;2022-09-01T01:28:28;15.70;97.00
61807;DHT22;47726;52.766;6.606;2022-09-01T01:31:04;15.70;97.00
61807;DHT22;47726;52.766;6.606;2022-09-01T01:33:34;15.60;97.00
61807;DHT22;47726;52.766;6.606;2022-09-01T01:36:05;15.60;97.20
61807;DHT22;47726;52.766;6.606;2022-09-01T01:38:32;15.60;97.10
61807;DHT22;47726;52.766;6.606;2022-09-01T01:41:00;15.50;97.20
61807;DHT22;47726;52.766;6.606;2022-09-01T01:43:28;15.50;97.20
61807;DHT22;47726;52.766;6.606;2022-09-01T01:45:55;15.50;97.20
61807;DHT22;47726;52.766;6.606;2022-09-01T01:48:27;15.50;97.10
61807;DHT22;47726;52.766;6.606;2022-09-01T01:50:54;15.40;97.30
61807;DHT22;47726;52.766;6.606;2022-09-01T01:53:24;15.40;97.30
61807;DHT22;47726;52.766;6.606;2022-09-01T01:55:49;15.40;97.30
61807;DHT22;47726;52.766;6.606;2022-09-01T01:58:20;15.40;97.30
61807;DHT22;47726;52.766;6.606;2022-09-01T02:00:47;15.30;97.30
61807;DHT22;47726;52.766;6.606;2022-09-01T02:03:15;15.30;97.40
61807;DHT22;47726;52.766;6.606;2022-09-01T02:05:49;15.30;97.30
61807;DHT22;47726;52.766;6.606;2022-09-01T02:08:15;15.20;97.40
61807;DHT22;47726;52.766;6.606;2022-09-01T02:10:44;15.20;97.50
61807;DHT22;47726;52.766;6.606;2022-09-01T02:13:12;15.20;97.50
61807;DHT22;47726;52.766;6.606;2022-09-01T02:15:52;15.20;97.60
61807;DHT22;47726;52.766;6.606;2022-09-01T02:18:20;15.20;97.60
61807;DHT22;47726;52.766;6.606;2022-09-01T02:20:47;15.10;97.60
61807;DHT22;47726;52.766;6.606;2022-09-01T02:23:15;15.10;97.50
61807;DHT22;47726;52.766;6.606;2022-09-01T02:25:44;15.10;97.60
61807;DHT22;47726;52.766;6.606;2022-09-01T02:28:14;15.10;97.30
61807;DHT22;47726;52.766;6.606;2022-09-01T02:30:42;15.10;97.60
61807;DHT22;47726;52.766;6.606;2022-09-01T02:33:10;15.10;97.50
61807;DHT22;47726;52.766;6.606;2022-09-01T02:35:36;15.00;97.60
61807;DHT22;47726;52.766;6.606;2022-09-01T02:38:05;15.00;97.80
61807;DHT22;47726;52.766;6.606;2022-09-01T02:40:32;14.90;97.80
61807;DHT22;47726;52.766;6.606;2022-09-01T02:42:58;14.90;97.80
61807;DHT22;47726;52.766;6.606;2022-09-01T02:45:26;14.90;97.90
61807;DHT22;47726;52.766;6.606;2022-09-01T02:47:54;14.80;97.90
61807;DHT22;47726;52.766;6.606;2022-09-01T02:50:22;14.80;98.10
61807;DHT22;47726;52.766;6.606;2022-09-01T02:52:48;14.80;98.00
61807;DHT22;47726;52.766;6.606;2022-09-01T02:55:18;14.80;98.00
61807;DHT22;47726;52.766;6.606;2022-09-01T02:57:47;14.70;98.10
61807;DHT22;47726;52.766;6.606;2022-09-01T03:00:15;14.70;98.00
61807;DHT22;47726;52.766;6.606;2022-09-01T03:02:59;14.70;98.20
61807;DHT22;47726;52.766;6.606;2022-09-01T03:05:27;14.70;98.20
61807;DHT22;47726;52.766;6.606;2022-09-01T03:07:57;14.70;98.30
61807;DHT22;47726;52.766;6.606;2022-09-01T03:10:28;14.60;98.40
61807;DHT22;47726;52.766;6.606;2022-09-01T03:12:59;14.60;98.40
61807;DHT22;47726;52.766;6.606;2022-09-01T03:15:26;14.60;98.50
61807;DHT22;47726;52.766;6.606;2022-09-01T03:17:52;14.60;98.50
61807;DHT22;47726;52.766;6.606;2022-09-01T03:20:18;14.50;98.50
61807;DHT22;47726;52.766;6.606;2022-09-01T03:22:47;14.50;98.60
61807;DHT22;47726;52.766;6.606;2022-09-01T03:25:13;14.40;98.60
61807;DHT22;47726;52.766;6.606;2022-09-01T03:27:39;14.40;98.70
61807;DHT22;47726;52.766;6.606;2022-09-01T03:30:05;14.40;98.80
61807;DHT22;47726;52.766;6.606;2022-09-01T03:32:31;14.40;98.70
61807;DHT22;47726;52.766;6.606;2022-09-01T03:34:57;14.40;98.80
61807;DHT22;47726;52.766;6.606;2022-09-01T03:37:24;14.30;98.90
61807;DHT22;47726;52.766;6.606;2022-09-01T03:39:49;14.30;99.00
61807;DHT22;47726;52.766;6.606;2022-09-01T03:42:15;14.30;99.00
61807;DHT22;47726;52.766;6.606;2022-09-01T03:44:44;14.30;99.10
61807;DHT22;47726;52.766;6.606;2022-09-01T03:47:10;14.30;99.10
61807;DHT22;47726;52.766;6.606;2022-09-01T03:49:39;14.30;99.20
61807;DHT22;47726;52.766;6.606;2022-09-01T03:52:08;14.30;99.20
61807;DHT22;47726;52.766;6.606;2022-09-01T03:54:35;14.30;99.40
61807;DHT22;47726;52.766;6.606;2022-09-01T03:57:01;14.20;99.60
61807;DHT22;47726;52.766;6.606;2022-09-01T03:59:31;14.30;99.40
61807;DHT22;47726;52.766;6.606;2022-09-01T04:01:58;14.20;99.70
61807;DHT22;47726;52.766;6.606;2022-09-01T04:04:25;14.20;99.60
61807;DHT22;47726;52.766;6.606;2022-09-01T04:06:50;14.20;99.60
61807;DHT22;47726;52.766;6.606;2022-09-01T04:09:16;14.30;99.60
61807;DHT22;47726;52.766;6.606;2022-09-01T04:11:42;14.20;99.60
61807;DHT22;47726;52.766;6.606;2022-09-01T04:14:11;14.30;99.60
61807;DHT22;47726;52.766;6.606;2022-09-01T04:16:36;14.20;99.70
61807;DHT22;47726;52.766;6.606;2022-09-01T04:19:23;14.30;99.60
61807;DHT22;47726;52.766;6.606;2022-09-01T04:21:53;14.30;99.70
61807;DHT22;47726;52.766;6.606;2022-09-01T04:24:20;14.20;99.80
61807;DHT22;47726;52.766;6.606;2022-09-01T04:26:48;14.20;99.80
61807;DHT22;47726;52.766;6.606;2022-09-01T04:29:19;14.20;99.90
61807;DHT22;47726;52.766;6.606;2022-09-01T04:31:48;14.20;99.90
61807;DHT22;47726;52.766;6.606;2022-09-01T04:34:18;14.20;99.90
61807;DHT22;47726;52.766;6.606;2022-09-01T04:36:45;14.20;99.90
61807;DHT22;47726;52.766;6.606;2022-09-01T04:39:11;14.20;99.90
61807;DHT22;47726;52.766;6.606;2022-09-01T04:41:40;14.20;99.90
61807;DHT22;47726;52.766;6.606;2022-09-01T04:44:07;14.20;99.90
61807;DHT22;47726;52.766;6.606;2022-09-01T04:46:37;14.20;99.90
61807;DHT22;47726;52.766;6.606;2022-09-01T04:49:07;14.10;99.90
61807;DHT22;47726;52.766;6.606;2022-09-01T04:51:41;14.10;99.90
61807;DHT22;47726;52.766;6.606;2022-09-01T04:54:08;14.10;99.90
61807;DHT22;47726;52.766;6.606;2022-09-01T04:56:39;14.20;99.90
61807;DHT22;47726;52.766;6.606;2022-09-01T04:59:06;14.10;99.90
61807;DHT22;47726;52.766;6.606;2022-09-01T05:01:34;14.20;99.90
61807;DHT22;47726;52.766;6.606;2022-09-01T05:04:19;14.10;99.90
61807;DHT22;47726;52.766;6.606;2022-09-01T05:06:49;14.10;99.90
61807;DHT22;47726;52.766;6.606;2022-09-01T05:09:17;14.10;99.90
61807;DHT22;47726;52.766;6.606;2022-09-01T05:11:43;14.10;99.90
61807;DHT22;47726;52.766;6.606;2022-09-01T05:14:11;14.10;99.90
61807;DHT22;47726;52.766;6.606;2022-09-01T05:16:38;14.10;99.90
61807;DHT22;47726;52.766;6.606;2022-09-01T05:19:06;14.10;99.90
61807;DHT22;47726;52.766;6.606;2022-09-01T05:21:32;14.10;99.90
61807;DHT22;47726;52.766;6.606;2022-09-01T05:23:58;14.10;99.90
61807;DHT22;47726;52.766;6.606;2022-09-01T05:26:30;14.10;99.90
61807;DHT22;47726;52.766;6.606;2022-09-01T05:29:02;14.10;99.90
61807;DHT22;47726;52.766;6.606;2022-09-01T05:31:29;14.00;99.90
61807;DHT22;47726;52.766;6.606;2022-09-01T05:33:59;14.10;99.90
61807;DHT22;47726;52.766;6.606;2022-09-01T05:36:26;14.10;99.90
61807;DHT22;47726;52.766;6.606;2022-09-01T05:38:52;14.10;99.90
61807;DHT22;47726;52.766;6.606;2022-09-01T05:41:19;14.10;99.90
61807;DHT22;47726;52.766;6.606;2022-09-01T05:43:47;14.10;99.90
61807;DHT22;47726;52.766;6.606;2022-09-01T05:46:17;14.10;99.90
61807;DHT22;47726;52.766;6.606;2022-09-01T05:48:44;14.10;99.90
61807;DHT22;47726;52.766;6.606;2022-09-01T05:51:11;14.10;99.90
61807;DHT22;47726;52.766;6.606;2022-09-01T05:53:40;14.20;99.90
61807;DHT22;47726;52.766;6.606;2022-09-01T05:56:07;14.20;99.90
61807;DHT22;47726;52.766;6.606;2022-09-01T05:58:34;14.20;99.90
61807;DHT22;47726;52.766;6.606;2022-09-01T06:01:01;14.30;99.90
61807;DHT22;47726;52.766;6.606;2022-09-01T06:03:27;14.30;99.90
61807;DHT22;47726;52.766;6.606;2022-09-01T06:06:01;14.40;99.90
61807;DHT22;47726;52.766;6.606;2022-09-01T06:08:27;14.40;99.90
61807;DHT22;47726;52.766;6.606;2022-09-01T06:10:54;14.50;99.90
61807;DHT22;47726;52.766;6.606;2022-09-01T06:13:19;14.70;99.90
61807;DHT22;47726;52.766;6.606;2022-09-01T06:15:50;14.90;99.90
61807;DHT22;47726;52.766;6.606;2022-09-01T06:18:21;15.10;99.90
61807;DHT22;47726;52.766;6.606;2022-09-01T06:20:47;15.40;99.90
61807;DHT22;47726;52.766;6.606;2022-09-01T06:23:14;15.60;99.90
61807;DHT22;47726;52.766;6.606;2022-09-01T06:25:45;15.90;99.70
61807;DHT22;47726;52.766;6.606;2022-09-01T06:28:16;16.20;99.40
61807;DHT22;47726;52.766;6.606;2022-09-01T06:30:43;16.50;99.10
61807;DHT22;47726;52.766;6.606;2022-09-01T06:33:11;16.70;98.70
61807;DHT22;47726;52.766;6.606;2022-09-01T06:35:39;17.00;98.40
61807;DHT22;47726;52.766;6.606;2022-09-01T06:38:07;17.20;98.00
61807;DHT22;47726;52.766;6.606;2022-09-01T06:40:33;17.40;97.70
61807;DHT22;47726;52.766;6.606;2022-09-01T06:42:59;17.70;97.50
61807;DHT22;47726;52.766;6.606;2022-09-01T06:45:27;17.90;97.10
61807;DHT22;47726;52.766;6.606;2022-09-01T06:47:52;18.10;96.70
61807;DHT22;47726;52.766;6.606;2022-09-01T06:50:21;18.30;96.30
61807;DHT22;47726;52.766;6.606;2022-09-01T06:52:48;18.50;96.10
61807;DHT22;47726;52.766;6.606;2022-09-01T06:55:26;18.70;95.90
61807;DHT22;47726;52.766;6.606;2022-09-01T06:57:56;18.90;95.60
61807;DHT22;47726;52.766;6.606;2022-09-01T07:00:23;19.10;95.30
61807;DHT22;47726;52.766;6.606;2022-09-01T07:02:55;19.30;95.00
61807;DHT22;47726;52.766;6.606;2022-09-01T07:05:22;19.50;94.80
61807;DHT22;47726;52.766;6.606;2022-09-01T07:07:52;19.60;94.60
61807;DHT22;47726;52.766;6.606;2022-09-01T07:10:21;19.80;94.40
61807;DHT22;47726;52.766;6.606;2022-09-01T07:12:48;20.00;94.00
61807;DHT22;47726;52.766;6.606;2022-09-01T07:15:14;20.20;93.90
61807;DHT22;47726;52.766;6.606;2022-09-01T07:17:45;20.40;93.60
61807;DHT22;47726;52.766;6.606;2022-09-01T07:20:13;20.50;93.30
61807;DHT22;47726;52.766;6.606;2022-09-01T07:22:40;20.70;93.10
61807;DHT22;47726;52.766;6.606;2022-09-01T07:25:06;20.90;92.80
61807;DHT22;47726;52.766;6.606;2022-09-01T07:27:40;21.00;92.40
61807;DHT22;47726;52.766;6.606;2022-09-01T07:30:14;21.20;92.10
61807;DHT22;47726;52.766;6.606;2022-09-01T07:32:40;21.30;91.80
61807;DHT22;47726;52.766;6.606;2022-09-01T07:35:08;21.50;91.60
61807;DHT22;47726;52.766;6.606;2022-09-01T07:37:34;21.70;91.30
61807;DHT22;47726;52.766;6.606;2022-09-01T07:40:04;21.80;90.90
61807;DHT22;47726;52.766;6.606;2022-09-01T07:42:31;21.90;90.60
61807;DHT22;47726;52.766;6.606;2022-09-01T07:44:56;22.00;90.40
61807;DHT22;47726;52.766;6.606;2022-09-01T07:47:22;22.20;90.30
61807;DHT22;47726;52.766;6.606;2022-09-01T07:49:48;22.30;90.10
61807;DHT22;47726;52.766;6.606;2022-09-01T07:52:14;22.50;89.50
61807;DHT22;47726;52.766;6.606;2022-09-01T07:54:39;22.60;89.20
61807;DHT22;47726;52.766;6.606;2022-09-01T07:57:05;22.80;88.70
61807;DHT22;47726;52.766;6.606;2022-09-01T07:59:30;23.00;88.10
61807;DHT22;47726;52.766;6.606;2022-09-01T08:01:57;23.00;87.10
61807;DHT22;47726;52.766;6.606;2022-09-01T08:04:23;23.20;86.50
61807;DHT22;47726;52.766;6.606;2022-09-01T08:06:49;23.30;85.50
61807;DHT22;47726;52.766;6.606;2022-09-01T08:09:15;23.30;85.10
61807;DHT22;47726;52.766;6.606;2022-09-01T08:11:41;23.40;84.60
61807;DHT22;47726;52.766;6.606;2022-09-01T08:14:06;23.50;84.10
61807;DHT22;47726;52.766;6.606;2022-09-01T08:16:32;23.70;83.70
61807;DHT22;47726;52.766;6.606;2022-09-01T08:18:58;23.70;83.70
61807;DHT22;47726;52.766;6.606;2022-09-01T08:21:24;23.90;83.20
61807;DHT22;47726;52.766;6.606;2022-09-01T08:23:52;24.00;82.40
61807;DHT22;47726;52.766;6.606;2022-09-01T08:26:20;24.10;82.00
61807;DHT22;47726;52.766;6.606;2022-09-01T08:28:47;24.20;81.40
61807;DHT22;47726;52.766;6.606;2022-09-01T08:31:15;24.30;81.20
61807;DHT22;47726;52.766;6.606;2022-09-01T08:33:42;24.40;81.00
61807;DHT22;47726;52.766;6.606;2022-09-01T08:36:11;24.50;80.50
61807;DHT22;47726;52.766;6.606;2022-09-01T08:38:37;24.60;79.80
61807;DHT22;47726;52.766;6.606;2022-09-01T08:41:12;24.80;79.40
61807;DHT22;47726;52.766;6.606;2022-09-01T08:46:32;25.10;77.50
61807;DHT22;47726;52.766;6.606;2022-09-01T08:49:28;25.10;76.90
61807;DHT22;47726;52.766;6.606;2022-09-01T08:52:21;25.30;75.60
61807;DHT22;47726;52.766;6.606;2022-09-01T08:55:13;25.40;76.90
61807;DHT22;47726;52.766;6.606;2022-09-01T08:57:42;25.50;75.60
61807;DHT22;47726;52.766;6.606;2022-09-01T09:00:11;25.70;74.50
61807;DHT22;47726;52.766;6.606;2022-09-01T09:03:09;25.80;74.30
61807;DHT22;47726;52.766;6.606;2022-09-01T09:11:07;26.10;71.80
61807;DHT22;47726;52.766;6.606;2022-09-01T09:16:32;26.30;71.90
61807;DHT22;47726;52.766;6.606;2022-09-01T09:21:43;26.50;70.30
61807;DHT22;47726;52.766;6.606;2022-09-01T09:24:29;26.50;70.20
61807;DHT22;47726;52.766;6.606;2022-09-01T09:27:34;26.60;70.00
61807;DHT22;47726;52.766;6.606;2022-09-01T09:30:07;26.70;68.50
61807;DHT22;47726;52.766;6.606;2022-09-01T09:32:53;26.80;67.80
61807;DHT22;47726;52.766;6.606;2022-09-01T09:35:27;26.90;67.50
61807;DHT22;47726;52.766;6.606;2022-09-01T09:37:54;26.90;68.20
61807;DHT22;47726;52.766;6.606;2022-09-01T09:40:22;26.90;67.10
61807;DHT22;47726;52.766;6.606;2022-09-01T09:45:24;27.00;65.60
61807;DHT22;47726;52.766;6.606;2022-09-01T09:47:50;27.10;64.90
61807;DHT22;47726;52.766;6.606;2022-09-01T09:50:18;27.20;66.40
61807;DHT22;47726;52.766;6.606;2022-09-01T09:52:45;27.30;65.30
61807;DHT22;47726;52.766;6.606;2022-09-01T09:55:28;27.20;63.30
61807;DHT22;47726;52.766;6.606;2022-09-01T09:57:59;27.20;62.80
61807;DHT22;47726;52.766;6.606;2022-09-01T10:00:31;27.40;64.30
61807;DHT22;47726;52.766;6.606;2022-09-01T10:03:02;27.50;64.60
61807;DHT22;47726;52.766;6.606;2022-09-01T10:05:44;27.60;64.40
61807;DHT22;47726;52.766;6.606;2022-09-01T10:14:19;27.70;62.00
61807;DHT22;47726;52.766;6.606;2022-09-01T10:17:01;27.70;60.60
61807;DHT22;47726;52.766;6.606;2022-09-01T10:19:28;27.80;61.90
61807;DHT22;47726;52.766;6.606;2022-09-01T10:21:57;27.90;61.30
61807;DHT22;47726;52.766;6.606;2022-09-01T10:24:34;27.90;59.90
61807;DHT22;47726;52.766;6.606;2022-09-01T10:27:03;27.90;59.30
61807;DHT22;47726;52.766;6.606;2022-09-01T10:29:42;27.70;58.10
61807;DHT22;47726;52.766;6.606;2022-09-01T10:32:14;27.70;57.70
61807;DHT22;47726;52.766;6.606;2022-09-01T10:34:40;27.50;57.10
61807;DHT22;47726;52.766;6.606;2022-09-01T10:37:07;27.30;57.70
61807;DHT22;47726;52.766;6.606;2022-09-01T10:39:33;27.00;57.80
61807;DHT22;47726;52.766;6.606;2022-09-01T10:41:59;26.80;57.40
61807;DHT22;47726;52.766;6.606;2022-09-01T10:44:34;26.60;58.20
61807;DHT22;47726;52.766;6.606;2022-09-01T10:47:10;26.70;58.00
61807;DHT22;47726;52.766;6.606;2022-09-01T10:52:02;26.80;57.70
61807;DHT22;47726;52.766;6.606;2022-09-01T10:57:11;26.70;56.20
61807;DHT22;47726;52.766;6.606;2022-09-01T10:59:48;26.80;56.50
61807;DHT22;47726;52.766;6.606;2022-09-01T11:07:29;26.80;57.10
61807;DHT22;47726;52.766;6.606;2022-09-01T11:10:26;26.90;55.10
61807;DHT22;47726;52.766;6.606;2022-09-01T11:16:37;27.00;53.70
61807;DHT22;47726;52.766;6.606;2022-09-01T11:19:31;27.10;53.80
61807;DHT22;47726;52.766;6.606;2022-09-01T11:22:22;27.10;52.00
61807;DHT22;47726;52.766;6.606;2022-09-01T11:24:52;27.10;54.60
61807;DHT22;47726;52.766;6.606;2022-09-01T11:36:10;27.10;54.30
61807;DHT22;47726;52.766;6.606;2022-09-01T11:47:19;27.40;53.70
61807;DHT22;47726;52.766;6.606;2022-09-01T11:49:52;27.40;53.40
61807;DHT22;47726;52.766;6.606;2022-09-01T11:52:22;27.40;52.70
61807;DHT22;47726;52.766;6.606;2022-09-01T11:54:48;27.40;53.90
61807;DHT22;47726;52.766;6.606;2022-09-01T11:57:40;27.50;53.90
61807;DHT22;47726;52.766;6.606;2022-09-01T12:00:15;27.60;54.40
61807;DHT22;47726;52.766;6.606;2022-09-01T12:02:51;27.70;53.90
61807;DHT22;47726;52.766;6.606;2022-09-01T12:05:28;27.80;53.30
61807;DHT22;47726;52.766;6.606;2022-09-01T12:07:55;27.80;52.90
61807;DHT22;47726;52.766;6.606;2022-09-01T12:13:11;27.80;53.40
61807;DHT22;47726;52.766;6.606;2022-09-01T12:15:39;27.70;53.30
61807;DHT22;47726;52.766;6.606;2022-09-01T12:18:24;27.60;52.80
61807;DHT22;47726;52.766;6.606;2022-09-01T12:20:56;27.50;51.80
61807;DHT22;47726;52.766;6.606;2022-09-01T12:23:34;27.50;52.20
61807;DHT22;47726;52.766;6.606;2022-09-01T12:26:07;27.50;50.90
61807;DHT22;47726;52.766;6.606;2022-09-01T12:28:33;27.50;52.50
61807;DHT22;47726;52.766;6.606;2022-09-01T12:31:02;27.40;53.10
61807;DHT22;47726;52.766;6.606;2022-09-01T12:33:30;27.20;52.60
61807;DHT22;47726;52.766;6.606;2022-09-01T12:36:25;27.20;52.30
61807;DHT22;47726;52.766;6.606;2022-09-01T12:38:54;27.20;52.60
61807;DHT22;47726;52.766;6.606;2022-09-01T12:41:35;27.20;52.30
61807;DHT22;47726;52.766;6.606;2022-09-01T12:46:58;27.10;48.80
61807;DHT22;47726;52.766;6.606;2022-09-01T12:49:33;26.90;49.70
61807;DHT22;47726;52.766;6.606;2022-09-01T12:55:07;27.00;51.00
61807;DHT22;47726;52.766;6.606;2022-09-01T12:57:38;27.10;51.20
61807;DHT22;47726;52.766;6.606;2022-09-01T13:02:39;27.20;51.40
61807;DHT22;47726;52.766;6.606;2022-09-01T13:05:28;27.20;51.30
61807;DHT22;47726;52.766;6.606;2022-09-01T13:07:56;27.10;51.50
61807;DHT22;47726;52.766;6.606;2022-09-01T13:10:25;27.00;51.70
61807;DHT22;47726;52.766;6.606;2022-09-01T13:12:53;26.90;51.80
61807;DHT22;47726;52.766;6.606;2022-09-01T13:15:20;26.90;51.50
61807;DHT22;47726;52.766;6.606;2022-09-01T13:17:46;26.90;52.00
61807;DHT22;47726;52.766;6.606;2022-09-01T13:20:12;26.90;52.00
61807;DHT22;47726;52.766;6.606;2022-09-01T13:22:38;26.90;51.10
61807;DHT22;47726;52.766;6.606;2022-09-01T13:25:10;26.90;51.30
61807;DHT22;47726;52.766;6.606;2022-09-01T13:27:38;26.90;51.80
61807;DHT22;47726;52.766;6.606;2022-09-01T13:30:12;26.90;52.10
61807;DHT22;47726;52.766;6.606;2022-09-01T13:32:39;26.90;52.20
61807;DHT22;47726;52.766;6.606;2022-09-01T13:35:06;27.00;51.40
61807;DHT22;47726;52.766;6.606;2022-09-01T13:37:32;26.90;50.60
61807;DHT22;47726;52.766;6.606;2022-09-01T13:39:58;26.80;49.50
61807;DHT22;47726;52.766;6.606;2022-09-01T13:42:23;26.80;49.40
61807;DHT22;47726;52.766;6.606;2022-09-01T13:44:49;26.70;50.30
61807;DHT22;47726;52.766;6.606;2022-09-01T13:47:15;26.70;50.40
61807;DHT22;47726;52.766;6.606;2022-09-01T13:49:40;26.80;50.90
61807;DHT22;47726;52.766;6.606;2022-09-01T13:52:06;26.90;51.60
61807;DHT22;47726;52.766;6.606;2022-09-01T13:54:32;27.00;52.10
61807;DHT22;47726;52.766;6.606;2022-09-01T13:56:57;27.00;51.40
61807;DHT22;47726;52.766;6.606;2022-09-01T13:59:23;27.10;52.00
61807;DHT22;47726;52.766;6.606;2022-09-01T14:01:49;27.10;52.10
61807;DHT22;47726;52.766;6.606;2022-09-01T14:04:14;27.20;52.40
61807;DHT22;47726;52.766;6.606;2022-09-01T14:06:41;27.30;51.90
61807;DHT22;47726;52.766;6.606;2022-09-01T14:09:09;27.30;50.80
61807;DHT22;47726;52.766;6.606;2022-09-01T14:11:35;27.30;51.00
61807;DHT22;47726;52.766;6.606;2022-09-01T14:14:01;27.40;51.50
61807;DHT22;47726;52.766;6.606;2022-09-01T14:16:26;27.30;50.60
61807;DHT22;47726;52.766;6.606;2022-09-01T14:18:52;27.10;50.90
61807;DHT22;47726;52.766;6.606;2022-09-01T14:21:18;27.10;50.90
61807;DHT22;47726;52.766;6.606;2022-09-01T14:23:43;27.00;50.90
61807;DHT22;47726;52.766;6.606;2022-09-01T14:26:13;26.90;50.90
61807;DHT22;47726;52.766;6.606;2022-09-01T14:28:41;26.90;50.00
61807;DHT22;47726;52.766;6.606;2022-09-01T14:31:11;26.90;49.60
61807;DHT22;47726;52.766;6.606;2022-09-01T14:33:37;26.90;50.30
61807;DHT22;47726;52.766;6.606;2022-09-01T14:36:03;26.80;49.40
61807;DHT22;47726;52.766;6.606;2022-09-01T14:38:30;26.80;49.60
61807;DHT22;47726;52.766;6.606;2022-09-01T14:40:56;26.80;49.30
61807;DHT22;47726;52.766;6.606;2022-09-01T14:43:21;26.70;49.00
61807;DHT22;47726;52.766;6.606;2022-09-01T14:45:47;26.70;48.70
61807;DHT22;47726;52.766;6.606;2022-09-01T14:48:15;26.50;48.40
61807;DHT22;47726;52.766;6.606;2022-09-01T14:50:42;26.50;49.20
61807;DHT22;47726;52.766;6.606;2022-09-01T14:53:09;26.60;48.60
61807;DHT22;47726;52.766;6.606;2022-09-01T14:55:35;26.50;49.40
61807;DHT22;47726;52.766;6.606;2022-09-01T14:58:01;26.60;49.80
61807;DHT22;47726;52.766;6.606;2022-09-01T15:00:27;26.60;49.80
61807;DHT22;47726;52.766;6.606;2022-09-01T15:02:54;26.40;49.40
61807;DHT22;47726;52.766;6.606;2022-09-01T15:05:20;26.40;49.40
61807;DHT22;47726;52.766;6.606;2022-09-01T15:07:46;26.30;49.20
61807;DHT22;47726;52.766;6.606;2022-09-01T15:10:14;26.20;49.40
61807;DHT22;47726;52.766;6.606;2022-09-01T15:12:40;26.10;49.20
61807;DHT22;47726;52.766;6.606;2022-09-01T15:15:07;26.10;48.90
61807;DHT22;47726;52.766;6.606;2022-09-01T15:17:33;26.10;49.00
61807;DHT22;47726;52.766;6.606;2022-09-01T15:19:59;26.00;48.90
61807;DHT22;47726;52.766;6.606;2022-09-01T15:22:47;26.00;49.30
61807;DHT22;47726;52.766;6.606;2022-09-01T15:25:13;25.90;49.60
61807;DHT22;47726;52.766;6.606;2022-09-01T15:27:38;25.90;49.50
61807;DHT22;47726;52.766;6.606;2022-09-01T15:30:05;25.80;49.50
61807;DHT22;47726;52.766;6.606;2022-09-01T15:32:37;25.80;50.00
61807;DHT22;47726;52.766;6.606;2022-09-01T15:35:03;25.70;50.10
61807;DHT22;47726;52.766;6.606;2022-09-01T15:37:28;25.60;50.10
61807;DHT22;47726;52.766;6.606;2022-09-01T15:39:54;25.50;50.20
61807;DHT22;47726;52.766;6.606;2022-09-01T15:42:19;25.40;50.20
61807;DHT22;47726;52.766;6.606;2022-09-01T15:44:46;25.40;50.30
61807;DHT22;47726;52.766;6.606;2022-09-01T15:47:11;25.30;50.40
61807;DHT22;47726;52.766;6.606;2022-09-01T15:49:37;25.30;50.30
61807;DHT22;47726;52.766;6.606;2022-09-01T15:52:03;25.30;50.50
61807;DHT22;47726;52.766;6.606;2022-09-01T15:54:28;25.30;50.40
61807;DHT22;47726;52.766;6.606;2022-09-01T15:56:54;25.30;50.30
61807;DHT22;47726;52.766;6.606;2022-09-01T15:59:19;25.30;50.40
61807;DHT22;47726;52.766;6.606;2022-09-01T16:01:46;25.20;50.30
61807;DHT22;47726;52.766;6.606;2022-09-01T16:04:14;25.10;49.90
61807;DHT22;47726;52.766;6.606;2022-09-01T16:06:41;25.10;49.90
61807;DHT22;47726;52.766;6.606;2022-09-01T16:09:09;25.00;49.90
61807;DHT22;47726;52.766;6.606;2022-09-01T16:11:35;24.90;50.10
61807;DHT22;47726;52.766;6.606;2022-09-01T16:14:03;24.80;50.40
61807;DHT22;47726;52.766;6.606;2022-09-01T16:22:14;24.70;50.40
61807;DHT22;47726;52.766;6.606;2022-09-01T16:24:44;24.70;49.90
61807;DHT22;47726;52.766;6.606;2022-09-01T16:27:21;24.70;50.20
61807;DHT22;47726;52.766;6.606;2022-09-01T16:29:49;24.60;49.70
61807;DHT22;47726;52.766;6.606;2022-09-01T16:32:18;24.60;50.10
61807;DHT22;47726;52.766;6.606;2022-09-01T16:34:46;24.60;50.00
61807;DHT22;47726;52.766;6.606;2022-09-01T16:48:41;24.50;50.60
61807;DHT22;47726;52.766;6.606;2022-09-01T16:54:12;24.40;50.50
61807;DHT22;47726;52.766;6.606;2022-09-01T17:00:05;24.40;51.10
61807;DHT22;47726;52.766;6.606;2022-09-01T17:02:49;24.40;50.80
61807;DHT22;47726;52.766;6.606;2022-09-01T17:05:23;24.40;50.40
61807;DHT22;47726;52.766;6.606;2022-09-01T17:08:12;24.30;50.20
61807;DHT22;47726;52.766;6.606;2022-09-01T17:10:49;24.30;50.50
61807;DHT22;47726;52.766;6.606;2022-09-01T17:13:35;24.30;50.10
61807;DHT22;47726;52.766;6.606;2022-09-01T17:16:10;24.20;48.90